Time;durP1;ratioP1;P1;durP2;ratioP2;P2;SDS_P1;SDS_P2;PMS_P1;PMS_P2;Temp;Humidity;BMP_temperature;BMP_pressure;BME280_temperature;BME280_humidity;BME280_pressure;Samples;Min_cycle;Max_cycle;Signal;HPM_P1;HPM_P2
2023/01/12 00:00:34;;;;;;;;;;;;;;;;;;6232554;23;19935;-80
2023/01/12 00:03:00;;;;;;;;;;;;;;;;;;6234612;23;19932;-78
2023/01/12 00:05:26;;;;;;;;;;;;;;;;;;6213887;22;19947;-81
2023/01/12 00:07:52;;;;;;;;;;;;;;;;;;6213250;23;19964;-81
2023/01/12 00:10:17;;;;;;;;;;;;;;;;;;6213382;23;19908;-81
2023/01/12 00:12:43;;;;;;;;;;;;;;;;;;6241039;23;19907;-80
2023/01/12 00:15:09;;;;;;;;;;;;;;;;;;6240546;23;19919;-80
2023/01/12 00:17:34;;;;;;;;;;;;;;;;;;6240247;23;19912;-81
2023/01/12 00:20:00;;;;;;;;;;;;;;;;;;6213399;23;19919;-82
2023/01/12 00:22:25;;;;;;;;;;;;;;;;;;6213861;23;19943;-81
2023/01/12 00:24:54;;;;;;;;;;;;;;;;;;6236816;23;19923;-79
2023/01/12 00:27:20;;;;;;;;;;;;;;;;;;6239803;22;19923;-81
2023/01/12 00:29:46;;;;;;;;;;;;;;;;;;6214624;23;19922;-80
2023/01/12 00:32:11;;;;;;;;;;;;;;;;;;6240769;22;19919;-80
2023/01/12 00:34:37;;;;;;;;;;;;;;;;;;6241628;22;19922;-81
2023/01/12 00:37:03;;;;;;;;;;;;;;;;;;6224235;23;19916;-80
2023/01/12 00:39:30;;;;;;;;;;;;;;;;;;6216671;23;20082;-81
2023/01/12 00:47:24;;;;;;;;;;;;;;;;;;6214772;23;20015;-79
2023/01/12 00:49:50;;;;;;;;;;;;;;;;;;6217071;23;19920;-80
2023/01/12 00:52:16;;;;;;;;;;;;;;;;;;6190671;23;19912;-80
2023/01/12 00:54:41;;;;;;;;;;;;;;;;;;6216317;23;19912;-79
2023/01/12 00:57:08;;;;;;;;;;;;;;;;;;6218697;23;19908;-79
2023/01/12 00:59:34;;;;;;;;;;;;;;;;;;6200325;23;19916;-81
2023/01/12 01:02:00;;;;;;;;;;;;;;;;;;6227464;23;19912;-80
2023/01/12 01:04:25;;;;;;;;;;;;;;;;;;6200367;23;19919;-80
2023/01/12 01:06:51;;;;;;;;;;;;;;;;;;6149782;23;19923;-81
2023/01/12 01:09:17;;;;;;;;;;;;;;;;;;6197871;23;19939;-79
2023/01/12 01:11:43;;;;;;;;;;;;;;;;;;6223583;23;19912;-78
2023/01/12 01:14:08;;;;;;;;;;;;;;;;;;6223266;23;20348;-80
2023/01/12 01:16:34;;;;;;;;;;;;;;;;;;6197646;23;19916;-80
2023/01/12 01:19:00;;;;;;;;;;;;;;;;;;6223680;23;19912;-79
2023/01/12 01:21:25;;;;;;;;;;;;;;;;;;6197608;23;19912;-79
2023/01/12 01:23:51;;;;;;;;;;;;;;;;;;6223943;23;19943;-80
2023/01/12 01:26:17;;;;;;;;;;;;;;;;;;6225748;23;19916;-81
2023/01/12 01:28:43;;;;;;;;;;;;;;;;;;6226554;23;19919;-80
2023/01/12 01:31:08;;;;;;;;;;;;;;;;;;6224572;23;19912;-80
2023/01/12 01:33:34;;;;;;;;;;;;;;;;;;6226649;23;19970;-81
2023/01/12 01:35:59;;;;;;;;;;;;;;;;;;6201362;23;19937;-81
2023/01/12 01:38:25;;;;;;;;;;;;;;;;;;6199885;23;19911;-80
2023/01/12 01:40:51;;;;;;;;;;;;;;;;;;6225609;23;19912;-80
2023/01/12 01:43:17;;;;;;;;;;;;;;;;;;6226107;23;19990;-81
2023/01/12 01:45:42;;;;;;;;;;;;;;;;;;6228599;23;19922;-79
2023/01/12 01:48:08;;;;;;;;;;;;;;;;;;6237015;23;19946;-79
2023/01/12 01:50:34;;;;;;;;;;;;;;;;;;6183578;23;19967;-79
2023/01/12 01:52:59;;;;;;;;;;;;;;;;;;6237806;23;19912;-80
2023/01/12 01:55:25;;;;;;;;;;;;;;;;;;6239228;22;19900;-78
2023/01/12 01:57:51;;;;;;;;;;;;;;;;;;6213582;23;19896;-79
2023/01/12 02:00:16;;;;;;;;;;;;;;;;;;6239357;23;19912;-80
2023/01/12 02:02:42;;;;;;;;;;;;;;;;;;6213845;23;19930;-79
2023/01/12 02:05:08;;;;;;;;;;;;;;;;;;6239483;22;19899;-79
2023/01/12 02:07:34;;;;;;;;;;;;;;;;;;6239538;22;19924;-80
2023/01/12 02:10:00;;;;;;;;;;;;;;;;;;6239041;23;19912;-80
2023/01/12 02:17:55;;;;;;;;;;;;;;;;;;6220146;23;19912;-79
2023/01/12 02:20:20;;;;;;;;;;;;;;;;;;6219715;23;20349;-82
2023/01/12 02:22:47;;;;;;;;;;;;;;;;;;6193299;23;19955;-80
2023/01/12 02:25:13;;;;;;;;;;;;;;;;;;6191136;23;19919;-80
2023/01/12 02:27:39;;;;;;;;;;;;;;;;;;6217397;23;20547;-81
2023/01/12 02:30:04;;;;;;;;;;;;;;;;;;6215570;23;19912;-80
2023/01/12 02:32:30;;;;;;;;;;;;;;;;;;6222270;23;19912;-81
2023/01/12 02:34:56;;;;;;;;;;;;;;;;;;6222122;23;20284;-82
2023/01/12 02:37:21;;;;;;;;;;;;;;;;;;6222973;23;19970;-80
2023/01/12 02:39:49;;;;;;;;;;;;;;;;;;6164350;23;19991;-79
2023/01/12 02:44:59;;;;;;;;;;;;;;;;;;6212788;23;19943;-80
2023/01/12 02:47:25;;;;;;;;;;;;;;;;;;6212470;23;19916;-79
2023/01/12 02:49:51;;;;;;;;;;;;;;;;;;6214076;23;19926;-80
2023/01/12 02:52:17;;;;;;;;;;;;;;;;;;6189749;23;19912;-79
2023/01/12 02:54:43;;;;;;;;;;;;;;;;;;6217141;23;19912;-79
2023/01/12 02:57:08;;;;;;;;;;;;;;;;;;6218477;23;19939;-79
2023/01/12 02:59:35;;;;;;;;;;;;;;;;;;6219089;23;20371;-80
2023/01/12 03:02:00;;;;;;;;;;;;;;;;;;6219771;23;19916;-81
2023/01/12 03:04:27;;;;;;;;;;;;;;;;;;6222064;23;19938;-80
2023/01/12 03:06:52;;;;;;;;;;;;;;;;;;6222283;23;19923;-80
2023/01/12 03:09:18;;;;;;;;;;;;;;;;;;6222434;23;20345;-81
2023/01/12 03:11:44;;;;;;;;;;;;;;;;;;6221666;23;20562;-80
2023/01/12 03:14:09;;;;;;;;;;;;;;;;;;6225743;22;19940;-83
2023/01/12 03:16:35;;;;;;;;;;;;;;;;;;6210973;23;19912;-81
2023/01/12 03:19:01;;;;;;;;;;;;;;;;;;6235880;23;19919;-80
2023/01/12 03:21:27;;;;;;;;;;;;;;;;;;6208768;23;19892;-82
2023/01/12 03:23:52;;;;;;;;;;;;;;;;;;6232955;23;19912;-84
2023/01/12 03:26:21;;;;;;;;;;;;;;;;;;6240394;23;19943;-82
2023/01/12 03:28:47;;;;;;;;;;;;;;;;;;6206075;23;20669;-83
2023/01/12 03:31:14;;;;;;;;;;;;;;;;;;6236212;23;19911;-82
2023/01/12 03:33:40;;;;;;;;;;;;;;;;;;6238937;22;19935;-81
2023/01/12 03:36:05;;;;;;;;;;;;;;;;;;6237658;23;19918;-83
2023/01/12 03:38:31;;;;;;;;;;;;;;;;;;6210734;22;19912;-83
2023/01/12 03:40:57;;;;;;;;;;;;;;;;;;6237282;23;19912;-82
2023/01/12 03:43:22;;;;;;;;;;;;;;;;;;6225905;23;19912;-79
2023/01/12 03:45:48;;;;;;;;;;;;;;;;;;6216960;23;19970;-81
2023/01/12 03:48:14;;;;;;;;;;;;;;;;;;6217429;23;19924;-81
2023/01/12 03:50:40;;;;;;;;;;;;;;;;;;6218004;23;20559;-82
2023/01/12 03:53:05;;;;;;;;;;;;;;;;;;6219666;23;19912;-80
2023/01/12 03:55:31;;;;;;;;;;;;;;;;;;6194327;23;20301;-81
2023/01/12 03:57:57;;;;;;;;;;;;;;;;;;6190145;23;20345;-81
2023/01/12 04:00:22;;;;;;;;;;;;;;;;;;6217698;23;19911;-80
2023/01/12 04:02:48;;;;;;;;;;;;;;;;;;6215744;23;19912;-81
2023/01/12 04:05:14;;;;;;;;;;;;;;;;;;6214893;23;20652;-82
2023/01/12 04:07:39;;;;;;;;;;;;;;;;;;6223338;23;19919;-82
2023/01/12 04:10:05;;;;;;;;;;;;;;;;;;6223591;23;19912;-81
2023/01/12 04:12:31;;;;;;;;;;;;;;;;;;6198347;23;19918;-81
2023/01/12 04:14:56;;;;;;;;;;;;;;;;;;6224322;23;19911;-81
2023/01/12 04:17:24;;;;;;;;;;;;;;;;;;6194905;23;20357;-81
2023/01/12 04:19:50;;;;;;;;;;;;;;;;;;6192184;23;19912;-80
2023/01/12 04:25:00;;;;;;;;;;;;;;;;;;6226117;23;19912;-81
2023/01/12 04:27:26;;;;;;;;;;;;;;;;;;6226404;23;19974;-81
2023/01/12 04:29:52;;;;;;;;;;;;;;;;;;6224875;23;19912;-81
2023/01/12 04:32:17;;;;;;;;;;;;;;;;;;6225410;23;19914;-81
2023/01/12 04:34:43;;;;;;;;;;;;;;;;;;6201233;23;20131;-83
2023/01/12 04:37:09;;;;;;;;;;;;;;;;;;6226875;23;19986;-83
2023/01/12 04:39:35;;;;;;;;;;;;;;;;;;6227414;23;19923;-82
2023/01/12 04:42:01;;;;;;;;;;;;;;;;;;6231287;23;19923;-84
2023/01/12 04:44:26;;;;;;;;;;;;;;;;;;6232393;23;19939;-84
2023/01/12 04:46:52;;;;;;;;;;;;;;;;;;6233591;23;19925;-82
2023/01/12 04:49:18;;;;;;;;;;;;;;;;;;6231865;23;19919;-82
2023/01/12 04:51:44;;;;;;;;;;;;;;;;;;6231459;23;19916;-81
2023/01/12 04:54:10;;;;;;;;;;;;;;;;;;6198140;23;19911;-82
2023/01/12 04:56:36;;;;;;;;;;;;;;;;;;6224036;23;19916;-81
2023/01/12 04:59:02;;;;;;;;;;;;;;;;;;6197346;23;20348;-81
2023/01/12 05:01:27;;;;;;;;;;;;;;;;;;6198977;23;19938;-81
2023/01/12 05:03:53;;;;;;;;;;;;;;;;;;6225453;23;19916;-81
2023/01/12 05:06:20;;;;;;;;;;;;;;;;;;6224079;23;19923;-80
2023/01/12 05:11:31;;;;;;;;;;;;;;;;;;6222491;23;20428;-81
2023/01/12 05:13:56;;;;;;;;;;;;;;;;;;6221671;23;19919;-82
2023/01/12 05:16:22;;;;;;;;;;;;;;;;;;6221803;23;19912;-81
2023/01/12 05:18:48;;;;;;;;;;;;;;;;;;6196074;23;19912;-81
2023/01/12 05:21:14;;;;;;;;;;;;;;;;;;6222703;23;19916;-82
2023/01/12 05:23:40;;;;;;;;;;;;;;;;;;6222745;23;19911;-81
2023/01/12 05:26:06;;;;;;;;;;;;;;;;;;6222901;23;19958;-82
2023/01/12 05:28:31;;;;;;;;;;;;;;;;;;6223593;23;19928;-81
2023/01/12 05:30:57;;;;;;;;;;;;;;;;;;6226253;23;19935;-82
2023/01/12 05:33:23;;;;;;;;;;;;;;;;;;6224296;23;19935;-80
2023/01/12 05:35:49;;;;;;;;;;;;;;;;;;6223972;23;19919;-81
2023/01/12 05:38:15;;;;;;;;;;;;;;;;;;6224312;23;19912;-81
2023/01/12 05:40:41;;;;;;;;;;;;;;;;;;6197836;23;19934;-82
2023/01/12 05:45:51;;;;;;;;;;;;;;;;;;6226778;23;19927;-81
2023/01/12 05:48:17;;;;;;;;;;;;;;;;;;6229146;23;19955;-81
2023/01/12 05:50:42;;;;;;;;;;;;;;;;;;6229667;23;19920;-81
2023/01/12 05:53:08;;;;;;;;;;;;;;;;;;6230265;23;19919;-83
2023/01/12 05:55:34;;;;;;;;;;;;;;;;;;6231300;23;19936;-82
2023/01/12 05:57:59;;;;;;;;;;;;;;;;;;6228000;23;19912;-80
2023/01/12 06:00:25;;;;;;;;;;;;;;;;;;6189453;23;19974;-82
2023/01/12 06:02:51;;;;;;;;;;;;;;;;;;6215323;23;20397;-81
2023/01/12 06:05:17;;;;;;;;;;;;;;;;;;6214164;23;20396;-80
2023/01/12 06:07:42;;;;;;;;;;;;;;;;;;6214840;23;19919;-79
2023/01/12 06:53:55;;;;;;;;;;;;;;;;;;6235020;22;19950;-86
2023/01/12 06:59:03;;;;;;;;;;;;;;;;;;6243722;22;19924;-87
2023/01/12 07:01:29;;;;;;;;;;;;;;;;;;6217551;22;19960;-87
2023/01/12 07:03:54;;;;;;;;;;;;;;;;;;6216002;23;19956;-86
2023/01/12 07:06:20;;;;;;;;;;;;;;;;;;6210109;23;19919;-87
2023/01/12 07:08:46;;;;;;;;;;;;;;;;;;6209916;23;19912;-88
2023/01/12 07:11:13;;;;;;;;;;;;;;;;;;6236920;23;19939;-87
2023/01/12 07:13:39;;;;;;;;;;;;;;;;;;6236973;23;19956;-87
2023/01/12 07:16:05;;;;;;;;;;;;;;;;;;6206819;23;19920;-86
2023/01/12 07:18:30;;;;;;;;;;;;;;;;;;6212243;23;19892;-86
2023/01/12 07:20:56;;;;;;;;;;;;;;;;;;6210213;23;19903;-87
2023/01/12 07:23:22;;;;;;;;;;;;;;;;;;6211364;23;19912;-86
2023/01/12 07:25:47;;;;;;;;;;;;;;;;;;6210690;23;19916;-84
2023/01/12 07:28:13;;;;;;;;;;;;;;;;;;6236753;23;20047;-86
2023/01/12 07:30:39;;;;;;;;;;;;;;;;;;6241521;23;19912;-86
2023/01/12 07:33:04;;;;;;;;;;;;;;;;;;6240012;23;19919;-83
2023/01/12 07:35:30;;;;;;;;;;;;;;;;;;6185743;23;19912;-83
2023/01/12 07:37:56;;;;;;;;;;;;;;;;;;6238406;23;19955;-84
2023/01/12 07:40:22;;;;;;;;;;;;;;;;;;6239592;23;19907;-85
2023/01/12 07:42:47;;;;;;;;;;;;;;;;;;6241029;22;19908;-82
2023/01/12 07:45:13;;;;;;;;;;;;;;;;;;6251845;22;19928;-84
2023/01/12 07:47:39;;;;;;;;;;;;;;;;;;6271453;22;19935;-87
2023/01/12 07:50:05;;;;;;;;;;;;;;;;;;6231942;22;19904;-82
2023/01/12 07:52:31;;;;;;;;;;;;;;;;;;6219819;23;19896;-85
2023/01/12 07:54:57;;;;;;;;;;;;;;;;;;6214093;23;19931;-86
2023/01/12 07:57:23;;;;;;;;;;;;;;;;;;6216332;23;19923;-86
2023/01/12 07:59:48;;;;;;;;;;;;;;;;;;6202249;23;19908;-86
2023/01/12 08:07:54;;;;;;;;;;;;;;;;;;6206873;23;19908;-84
2023/01/12 08:10:20;;;;;;;;;;;;;;;;;;6221502;23;19999;-85
2023/01/12 08:12:46;;;;;;;;;;;;;;;;;;6214920;23;19942;-86
2023/01/12 08:15:12;;;;;;;;;;;;;;;;;;6241724;23;19939;-87
2023/01/12 08:17:38;;;;;;;;;;;;;;;;;;6240506;23;19933;-87
2023/01/12 08:20:04;;;;;;;;;;;;;;;;;;6242105;23;19901;-83
2023/01/12 08:25:05;;;;;;;;;;;;;;;;;;6245869;22;19916;-84
2023/01/12 08:27:30;;;;;;;;;;;;;;;;;;6241666;23;19918;-85
2023/01/12 08:29:57;;;;;;;;;;;;;;;;;;6242521;23;19934;-84
2023/01/12 08:32:23;;;;;;;;;;;;;;;;;;6243245;23;20332;-81
2023/01/12 08:34:48;;;;;;;;;;;;;;;;;;6237386;23;19922;-83
2023/01/12 08:40:04;;;;;;;;;;;;;;;;;;6256551;22;19954;-83
2023/01/12 08:42:30;;;;;;;;;;;;;;;;;;6243547;23;19916;-86
2023/01/12 08:44:55;;;;;;;;;;;;;;;;;;6270143;22;19920;-84
2023/01/12 08:47:21;;;;;;;;;;;;;;;;;;6244227;23;19910;-88
2023/01/12 08:49:47;;;;;;;;;;;;;;;;;;6267828;22;19900;-84
2023/01/12 08:52:13;;;;;;;;;;;;;;;;;;6269580;23;19915;-85
2023/01/12 08:54:39;;;;;;;;;;;;;;;;;;6271558;22;19902;-85
2023/01/12 08:57:04;;;;;;;;;;;;;;;;;;6243683;23;19930;-83
2023/01/12 08:59:30;;;;;;;;;;;;;;;;;;6267332;23;19911;-85
2023/01/12 09:01:56;;;;;;;;;;;;;;;;;;6255084;22;19915;-88
2023/01/12 09:04:21;;;;;;;;;;;;;;;;;;6244776;22;20164;-87
2023/01/12 09:06:47;;;;;;;;;;;;;;;;;;6241376;23;19943;-86
2023/01/12 09:09:13;;;;;;;;;;;;;;;;;;6196923;23;19908;-86
2023/01/12 09:11:39;;;;;;;;;;;;;;;;;;6237906;23;19916;-85
2023/01/12 09:14:05;;;;;;;;;;;;;;;;;;6238690;23;19919;-83
2023/01/12 09:16:30;;;;;;;;;;;;;;;;;;6212623;23;19920;-86
2023/01/12 09:18:56;;;;;;;;;;;;;;;;;;6239111;23;19896;-88
2023/01/12 09:21:22;;;;;;;;;;;;;;;;;;6211795;23;19941;-85
2023/01/12 09:23:51;;;;;;;;;;;;;;;;;;6234839;23;19936;-85
2023/01/12 09:28:59;;;;;;;;;;;;;;;;;;6205629;23;19924;-85
2023/01/12 09:31:25;;;;;;;;;;;;;;;;;;6238296;23;19938;-82
2023/01/12 09:33:52;;;;;;;;;;;;;;;;;;6238899;23;19915;-83
2023/01/12 09:36:18;;;;;;;;;;;;;;;;;;6237496;23;19916;-86
2023/01/12 09:38:43;;;;;;;;;;;;;;;;;;6242139;23;19906;-87
2023/01/12 09:41:09;;;;;;;;;;;;;;;;;;6239527;23;19896;-87
2023/01/12 09:51:39;;;;;;;;;;;;;;;;;;6240275;22;19924;-83
2023/01/12 09:54:05;;;;;;;;;;;;;;;;;;6242124;23;19892;-84
2023/01/12 09:59:06;;;;;;;;;;;;;;;;;;6229764;22;20357;-80
2023/01/12 10:01:32;;;;;;;;;;;;;;;;;;6191843;23;19982;-81
2023/01/12 10:03:58;;;;;;;;;;;;;;;;;;6224992;23;19911;-84
2023/01/12 10:06:24;;;;;;;;;;;;;;;;;;6229908;23;19918;-81
2023/01/12 10:08:50;;;;;;;;;;;;;;;;;;6224655;23;19916;-82
2023/01/12 10:11:15;;;;;;;;;;;;;;;;;;6224380;23;20612;-82
2023/01/12 10:13:41;;;;;;;;;;;;;;;;;;6196948;23;19911;-82
2023/01/12 10:16:07;;;;;;;;;;;;;;;;;;6173123;23;20167;-82
2023/01/12 10:18:33;;;;;;;;;;;;;;;;;;6225051;23;19939;-82
2023/01/12 10:20:58;;;;;;;;;;;;;;;;;;6224661;23;20298;-82
2023/01/12 10:23:24;;;;;;;;;;;;;;;;;;6197830;23;19922;-82
2023/01/12 10:25:50;;;;;;;;;;;;;;;;;;6225684;23;19923;-82
2023/01/12 10:28:16;;;;;;;;;;;;;;;;;;6200174;23;19918;-82
2023/01/12 10:30:42;;;;;;;;;;;;;;;;;;6225259;23;20071;-83
2023/01/12 10:33:07;;;;;;;;;;;;;;;;;;6226369;23;20372;-83
2023/01/12 10:35:33;;;;;;;;;;;;;;;;;;6198369;23;19912;-82
2023/01/12 10:37:59;;;;;;;;;;;;;;;;;;6227858;23;19919;-82
2023/01/12 10:40:24;;;;;;;;;;;;;;;;;;6199868;23;19943;-83
2023/01/12 10:45:34;;;;;;;;;;;;;;;;;;6227462;23;19912;-82
2023/01/12 10:48:03;;;;;;;;;;;;;;;;;;6227243;23;19958;-81
2023/01/12 10:50:31;;;;;;;;;;;;;;;;;;6226532;23;19904;-83
2023/01/12 10:52:57;;;;;;;;;;;;;;;;;;6199446;23;20325;-80
2023/01/12 10:55:23;;;;;;;;;;;;;;;;;;6219635;23;19976;-85
2023/01/12 10:57:49;;;;;;;;;;;;;;;;;;6221551;23;20353;-81
2023/01/12 11:00:14;;;;;;;;;;;;;;;;;;6190908;23;19913;-80
2023/01/12 11:02:40;;;;;;;;;;;;;;;;;;6193969;23;19998;-82
2023/01/12 11:05:06;;;;;;;;;;;;;;;;;;6197977;23;19935;-83
2023/01/12 11:07:34;;;;;;;;;;;;;;;;;;6228689;23;19920;-82
2023/01/12 11:10:00;;;;;;;;;;;;;;;;;;6196865;23;19916;-82
2023/01/12 11:12:26;;;;;;;;;;;;;;;;;;6225366;23;19960;-82
2023/01/12 11:14:52;;;;;;;;;;;;;;;;;;6225170;23;19912;-83
2023/01/12 11:17:18;;;;;;;;;;;;;;;;;;6232280;23;19939;-83
2023/01/12 11:19:44;;;;;;;;;;;;;;;;;;6229214;23;19958;-81
2023/01/12 11:22:10;;;;;;;;;;;;;;;;;;6222128;23;19956;-82
2023/01/12 11:24:35;;;;;;;;;;;;;;;;;;6223687;23;19999;-82
2023/01/12 11:27:01;;;;;;;;;;;;;;;;;;6232205;23;19972;-83
2023/01/12 11:29:27;;;;;;;;;;;;;;;;;;6227657;23;19918;-81
2023/01/12 11:31:53;;;;;;;;;;;;;;;;;;6197580;23;19912;-83
2023/01/12 11:34:18;;;;;;;;;;;;;;;;;;6232857;23;19915;-83
2023/01/12 11:36:44;;;;;;;;;;;;;;;;;;6226048;23;19924;-81
2023/01/12 11:39:10;;;;;;;;;;;;;;;;;;6172471;23;19912;-82
2023/01/12 11:41:36;;;;;;;;;;;;;;;;;;6206861;23;19900;-82
2023/01/12 11:44:01;;;;;;;;;;;;;;;;;;6239188;23;19926;-83
2023/01/12 11:46:27;;;;;;;;;;;;;;;;;;6227630;23;19919;-82
2023/01/12 11:48:53;;;;;;;;;;;;;;;;;;6226847;23;19993;-82
2023/01/12 11:51:19;;;;;;;;;;;;;;;;;;6201694;23;19916;-81
2023/01/12 11:53:45;;;;;;;;;;;;;;;;;;6201094;23;19972;-82
2023/01/12 11:56:11;;;;;;;;;;;;;;;;;;6221446;23;19927;-81
2023/01/12 11:58:36;;;;;;;;;;;;;;;;;;6216249;23;19924;-81
2023/01/12 12:01:02;;;;;;;;;;;;;;;;;;6215873;23;20322;-81
2023/01/12 12:03:28;;;;;;;;;;;;;;;;;;6140377;23;19912;-81
2023/01/12 12:05:54;;;;;;;;;;;;;;;;;;6216979;23;20353;-82
2023/01/12 12:08:20;;;;;;;;;;;;;;;;;;6217591;23;19924;-80
2023/01/12 12:10:45;;;;;;;;;;;;;;;;;;6218036;23;19911;-80
2023/01/12 12:13:11;;;;;;;;;;;;;;;;;;6216695;23;19934;-81
2023/01/12 12:15:36;;;;;;;;;;;;;;;;;;6188943;23;20668;-81
2023/01/12 12:18:03;;;;;;;;;;;;;;;;;;6219087;23;19927;-81
2023/01/12 12:20:31;;;;;;;;;;;;;;;;;;6218248;23;19960;-80
2023/01/12 12:22:56;;;;;;;;;;;;;;;;;;6190223;23;19919;-79
2023/01/12 12:25:22;;;;;;;;;;;;;;;;;;6191484;23;19916;-81
2023/01/12 12:27:48;;;;;;;;;;;;;;;;;;6219108;23;19911;-80
2023/01/12 12:30:13;;;;;;;;;;;;;;;;;;6218900;23;19919;-81
2023/01/12 12:32:39;;;;;;;;;;;;;;;;;;6217441;23;20412;-80
2023/01/12 12:35:05;;;;;;;;;;;;;;;;;;6213999;23;20234;-79
2023/01/12 12:37:30;;;;;;;;;;;;;;;;;;6214311;23;19919;-80
2023/01/12 12:39:56;;;;;;;;;;;;;;;;;;6187906;23;19923;-81
2023/01/12 12:45:15;;;;;;;;;;;;;;;;;;6217762;23;19916;-81
2023/01/12 12:47:41;;;;;;;;;;;;;;;;;;6216637;23;20928;-81
2023/01/12 12:50:07;;;;;;;;;;;;;;;;;;6215814;23;19919;-80
2023/01/12 12:52:35;;;;;;;;;;;;;;;;;;6214359;23;19912;-81
2023/01/12 12:55:01;;;;;;;;;;;;;;;;;;6214518;23;19915;-80
2023/01/12 12:57:28;;;;;;;;;;;;;;;;;;6212843;23;19920;-80
2023/01/12 12:59:54;;;;;;;;;;;;;;;;;;6185794;23;19940;-82
2023/01/12 13:02:19;;;;;;;;;;;;;;;;;;6214479;23;19916;-79
2023/01/12 13:04:45;;;;;;;;;;;;;;;;;;6188856;23;19934;-81
2023/01/12 13:07:11;;;;;;;;;;;;;;;;;;6217128;23;20264;-81
2023/01/12 13:09:37;;;;;;;;;;;;;;;;;;6212311;23;19916;-80
2023/01/12 13:12:02;;;;;;;;;;;;;;;;;;6213561;23;19916;-79
2023/01/12 13:14:28;;;;;;;;;;;;;;;;;;6207100;23;19928;-80
2023/01/12 13:16:54;;;;;;;;;;;;;;;;;;6193285;23;19923;-79
2023/01/12 13:19:20;;;;;;;;;;;;;;;;;;6241075;23;19998;-79
2023/01/12 13:21:45;;;;;;;;;;;;;;;;;;6239000;23;19998;-79
2023/01/12 13:24:11;;;;;;;;;;;;;;;;;;6189787;23;19915;-80
2023/01/12 13:26:38;;;;;;;;;;;;;;;;;;6244323;23;19911;-80
2023/01/12 13:29:03;;;;;;;;;;;;;;;;;;6241525;23;19977;-79
2023/01/12 13:31:29;;;;;;;;;;;;;;;;;;6240309;23;19911;-79
2023/01/12 13:33:55;;;;;;;;;;;;;;;;;;6243356;23;19923;-80
2023/01/12 13:36:21;;;;;;;;;;;;;;;;;;6244095;23;19926;-79
2023/01/12 13:38:46;;;;;;;;;;;;;;;;;;6213861;23;20307;-80
2023/01/12 13:41:12;;;;;;;;;;;;;;;;;;6241917;23;19918;-80
2023/01/12 13:43:38;;;;;;;;;;;;;;;;;;6215948;23;19918;-77
2023/01/12 13:46:03;;;;;;;;;;;;;;;;;;6212933;23;19987;-80
2023/01/12 13:48:29;;;;;;;;;;;;;;;;;;6212536;23;20371;-79
2023/01/12 13:50:55;;;;;;;;;;;;;;;;;;6237920;23;20676;-75
2023/01/12 13:53:20;;;;;;;;;;;;;;;;;;6189428;23;19912;-81
2023/01/12 13:55:46;;;;;;;;;;;;;;;;;;6222972;23;19942;-82
2023/01/12 13:58:12;;;;;;;;;;;;;;;;;;6253382;23;19911;-82
2023/01/12 14:00:37;;;;;;;;;;;;;;;;;;6248387;23;19962;-82
2023/01/12 14:03:03;;;;;;;;;;;;;;;;;;6247832;23;19965;-81
2023/01/12 14:05:29;;;;;;;;;;;;;;;;;;6229517;23;19911;-84
2023/01/12 14:07:54;;;;;;;;;;;;;;;;;;6255982;23;20303;-81
2023/01/12 14:10:20;;;;;;;;;;;;;;;;;;6225306;23;19918;-81
2023/01/12 14:12:46;;;;;;;;;;;;;;;;;;6247749;23;19915;-81
2023/01/12 14:18:10;;;;;;;;;;;;;;;;;;6212008;23;19947;-81
2023/01/12 14:20:35;;;;;;;;;;;;;;;;;;6250063;23;19961;-81
2023/01/12 14:23:01;;;;;;;;;;;;;;;;;;6229662;23;20447;-83
2023/01/12 14:25:27;;;;;;;;;;;;;;;;;;6246856;23;19908;-79
2023/01/12 14:27:52;;;;;;;;;;;;;;;;;;6165579;23;19915;-78
2023/01/12 14:30:18;;;;;;;;;;;;;;;;;;6241483;23;19937;-79
2023/01/12 14:32:44;;;;;;;;;;;;;;;;;;6165598;23;20345;-80
2023/01/12 14:35:09;;;;;;;;;;;;;;;;;;6217368;23;19923;-78
2023/01/12 14:37:35;;;;;;;;;;;;;;;;;;6240357;23;19978;-78
2023/01/12 14:40:01;;;;;;;;;;;;;;;;;;6249745;23;19935;-81
2023/01/12 14:47:56;;;;;;;;;;;;;;;;;;6245278;23;19911;-80
2023/01/12 14:50:22;;;;;;;;;;;;;;;;;;6243697;23;19911;-80
2023/01/12 14:52:48;;;;;;;;;;;;;;;;;;6243191;23;19912;-80
2023/01/12 14:55:13;;;;;;;;;;;;;;;;;;6243844;23;19911;-80
2023/01/12 14:57:39;;;;;;;;;;;;;;;;;;6217298;23;19919;-81
2023/01/12 15:00:06;;;;;;;;;;;;;;;;;;6228015;23;19904;-81
2023/01/12 15:02:32;;;;;;;;;;;;;;;;;;6262451;23;19934;-84
2023/01/12 15:04:57;;;;;;;;;;;;;;;;;;6249376;23;19911;-80
2023/01/12 15:07:23;;;;;;;;;;;;;;;;;;6219564;23;19915;-80
2023/01/12 15:09:49;;;;;;;;;;;;;;;;;;6219058;23;20012;-81
2023/01/12 15:12:15;;;;;;;;;;;;;;;;;;6228591;23;19916;-80
2023/01/12 15:14:40;;;;;;;;;;;;;;;;;;6248059;23;20241;-80
2023/01/12 15:25:34;;;;;;;;;;;;;;;;;;6220158;23;19939;-80
2023/01/12 15:28:00;;;;;;;;;;;;;;;;;;6244348;23;19934;-81
2023/01/12 15:30:26;;;;;;;;;;;;;;;;;;6248550;23;20344;-81
2023/01/12 15:32:52;;;;;;;;;;;;;;;;;;6250332;23;19919;-82
2023/01/12 15:35:20;;;;;;;;;;;;;;;;;;6246845;23;19915;-79
2023/01/12 15:37:45;;;;;;;;;;;;;;;;;;6241664;23;19923;-78
2023/01/12 15:40:11;;;;;;;;;;;;;;;;;;6241257;23;19911;-78
2023/01/12 15:42:37;;;;;;;;;;;;;;;;;;6227915;23;19961;-83
2023/01/12 15:45:03;;;;;;;;;;;;;;;;;;6254689;23;19912;-82
2023/01/12 15:47:29;;;;;;;;;;;;;;;;;;6252207;23;19912;-81
2023/01/12 15:49:55;;;;;;;;;;;;;;;;;;6243930;23;20384;-80
2023/01/12 15:52:21;;;;;;;;;;;;;;;;;;6246024;23;19919;-80
2023/01/12 15:54:46;;;;;;;;;;;;;;;;;;6189826;23;19911;-79
2023/01/12 15:57:12;;;;;;;;;;;;;;;;;;6243081;23;20058;-81
2023/01/12 15:59:38;;;;;;;;;;;;;;;;;;6245503;23;20045;-79
2023/01/12 16:02:03;;;;;;;;;;;;;;;;;;6246770;23;19912;-81
2023/01/12 16:04:29;;;;;;;;;;;;;;;;;;6243206;23;19911;-82
2023/01/12 16:06:55;;;;;;;;;;;;;;;;;;6220442;23;19969;-81
2023/01/12 16:09:20;;;;;;;;;;;;;;;;;;6244499;23;19911;-81
2023/01/12 16:11:46;;;;;;;;;;;;;;;;;;6244284;23;19934;-80
2023/01/12 16:14:12;;;;;;;;;;;;;;;;;;6243821;23;20014;-80
2023/01/12 16:16:37;;;;;;;;;;;;;;;;;;6247785;23;19919;-82
2023/01/12 16:19:04;;;;;;;;;;;;;;;;;;6247818;23;19911;-81
2023/01/12 16:21:30;;;;;;;;;;;;;;;;;;6221489;23;19934;-81
2023/01/12 16:23:56;;;;;;;;;;;;;;;;;;6255350;23;19943;-83
2023/01/12 16:26:22;;;;;;;;;;;;;;;;;;6226753;23;20007;-80
2023/01/12 16:28:48;;;;;;;;;;;;;;;;;;6227136;23;19916;-81
2023/01/12 16:31:14;;;;;;;;;;;;;;;;;;6257448;23;19919;-83
2023/01/12 16:33:39;;;;;;;;;;;;;;;;;;6258328;23;19918;-83
2023/01/12 16:36:05;;;;;;;;;;;;;;;;;;6259050;23;19924;-80
2023/01/12 16:38:31;;;;;;;;;;;;;;;;;;6226393;23;19911;-83
2023/01/12 16:40:56;;;;;;;;;;;;;;;;;;6249340;23;19912;-81
2023/01/12 16:43:22;;;;;;;;;;;;;;;;;;6247123;23;19951;-82
2023/01/12 16:45:48;;;;;;;;;;;;;;;;;;6243302;23;19911;-80
2023/01/12 16:48:14;;;;;;;;;;;;;;;;;;6193330;23;19914;-81
2023/01/12 16:50:39;;;;;;;;;;;;;;;;;;6220386;23;19912;-82
2023/01/12 16:53:05;;;;;;;;;;;;;;;;;;6254901;23;19965;-81
2023/01/12 16:55:31;;;;;;;;;;;;;;;;;;6225719;23;19911;-82
2023/01/12 16:57:56;;;;;;;;;;;;;;;;;;6254872;23;19939;-83
2023/01/12 17:00:22;;;;;;;;;;;;;;;;;;6245884;23;20352;-80
2023/01/12 17:02:48;;;;;;;;;;;;;;;;;;6249781;23;19911;-82
2023/01/12 17:05:14;;;;;;;;;;;;;;;;;;6256075;23;19911;-81
2023/01/12 17:07:39;;;;;;;;;;;;;;;;;;6250425;23;19953;-81
2023/01/12 17:10:05;;;;;;;;;;;;;;;;;;6191064;23;19991;-79
2023/01/12 17:12:31;;;;;;;;;;;;;;;;;;6248560;23;19935;-82
2023/01/12 17:14:57;;;;;;;;;;;;;;;;;;6223182;23;19920;-80
2023/01/12 17:17:23;;;;;;;;;;;;;;;;;;6241939;23;19919;-80
2023/01/12 17:19:48;;;;;;;;;;;;;;;;;;6240858;23;19919;-79
2023/01/12 17:22:14;;;;;;;;;;;;;;;;;;6243966;23;20264;-79
2023/01/12 17:24:40;;;;;;;;;;;;;;;;;;6241296;23;19915;-82
2023/01/12 17:27:06;;;;;;;;;;;;;;;;;;6225232;23;19911;-81
2023/01/12 17:29:32;;;;;;;;;;;;;;;;;;6250595;23;19911;-81
2023/01/12 17:32:02;;;;;;;;;;;;;;;;;;6262812;22;20300;-85
2023/01/12 17:34:29;;;;;;;;;;;;;;;;;;6268164;23;19915;-81
2023/01/12 17:36:55;;;;;;;;;;;;;;;;;;6262704;23;19903;-82
2023/01/12 17:39:21;;;;;;;;;;;;;;;;;;6269622;22;19948;-84
2023/01/12 17:44:31;;;;;;;;;;;;;;;;;;6241506;22;19900;-83
2023/01/12 17:46:57;;;;;;;;;;;;;;;;;;6264769;22;19915;-80
2023/01/12 17:49:23;;;;;;;;;;;;;;;;;;6261059;23;19955;-81
2023/01/12 17:51:48;;;;;;;;;;;;;;;;;;6256667;23;19911;-84
2023/01/12 17:54:14;;;;;;;;;;;;;;;;;;6252406;23;19935;-82
2023/01/12 17:56:40;;;;;;;;;;;;;;;;;;6254470;23;19939;-85
2023/01/12 17:59:06;;;;;;;;;;;;;;;;;;6202289;23;19916;-80
2023/01/12 18:01:32;;;;;;;;;;;;;;;;;;6258091;23;20006;-82
2023/01/12 18:03:57;;;;;;;;;;;;;;;;;;6247808;23;20279;-78
2023/01/12 18:06:23;;;;;;;;;;;;;;;;;;6246371;23;19934;-82
2023/01/12 18:08:49;;;;;;;;;;;;;;;;;;6203312;23;19912;-82
2023/01/12 18:11:14;;;;;;;;;;;;;;;;;;6238215;23;19956;-85
2023/01/12 18:13:40;;;;;;;;;;;;;;;;;;6235266;23;19912;-77
2023/01/12 18:16:06;;;;;;;;;;;;;;;;;;6235178;23;19919;-82
2023/01/12 18:18:32;;;;;;;;;;;;;;;;;;6220509;23;20048;-82
2023/01/12 18:20:57;;;;;;;;;;;;;;;;;;6231961;23;19912;-84
2023/01/12 18:23:23;;;;;;;;;;;;;;;;;;6226104;23;19896;-81
2023/01/12 18:25:49;;;;;;;;;;;;;;;;;;6229032;23;20372;-83
2023/01/12 18:28:14;;;;;;;;;;;;;;;;;;6227249;23;19931;-85
2023/01/12 18:30:40;;;;;;;;;;;;;;;;;;6239253;23;19947;-87
2023/01/12 18:33:06;;;;;;;;;;;;;;;;;;6218249;23;19920;-85